Time;durP1;ratioP1;P1;durP2;ratioP2;P2;SDS_P1;SDS_P2;PMS_P1;PMS_P2;Temp;Humidity;BMP_temperature;BMP_pressure;BME280_temperature;BME280_humidity;BME280_pressure;Samples;Min_cycle;Max_cycle;Signal;HPM_P1;HPM_P2
2022/09/09 00:02:01;;;;;;;4.30;2.78;;;14.40;99.90;;;;;;5046259;28;20207;-73
2022/09/09 00:04:36;;;;;;;3.08;2.88;;;14.40;99.90;;;;;;5042331;28;20214;-74
2022/09/09 00:07:16;;;;;;;3.40;3.03;;;14.40;99.90;;;;;;5046012;28;20167;-73
2022/09/09 00:10:00;;;;;;;3.70;3.40;;;14.30;99.90;;;;;;5045004;28;20183;-73
2022/09/09 00:12:34;;;;;;;3.83;3.10;;;14.30;99.90;;;;;;5039750;28;20165;-74
2022/09/09 00:15:12;;;;;;;4.20;3.90;;;14.20;99.90;;;;;;5049986;28;20187;-73
2022/09/09 00:17:58;;;;;;;4.65;4.25;;;14.20;99.90;;;;;;5042847;28;20172;-73
2022/09/09 00:20:23;;;;;;;4.03;3.83;;;14.20;99.90;;;;;;5035015;28;20444;-73
2022/09/09 00:23:19;;;;;;;3.67;3.47;;;14.20;99.90;;;;;;5042935;28;20279;-73
2022/09/09 00:26:19;;;;;;;4.90;3.75;;;14.20;99.90;;;;;;5035948;28;20172;-73
2022/09/09 00:29:07;;;;;;;4.90;4.60;;;14.20;99.90;;;;;;5039741;28;20179;-73
2022/09/09 00:31:33;;;;;;;4.93;4.43;;;14.20;99.90;;;;;;5039624;28;20176;-73
2022/09/09 00:34:08;;;;;;;5.18;4.78;;;14.20;99.90;;;;;;5045966;28;20537;-73
2022/09/09 00:36:35;;;;;;;5.03;4.63;;;14.20;99.90;;;;;;5045051;28;20274;-73
2022/09/09 00:39:02;;;;;;;6.00;5.35;;;14.20;99.90;;;;;;5035643;28;20173;-73
2022/09/09 00:42:09;;;;;;;6.43;5.82;;;14.20;99.90;;;;;;5047774;28;20187;-73
2022/09/09 00:44:37;;;;;;;6.50;5.80;;;14.30;99.90;;;;;;5030208;28;20259;-76
2022/09/09 00:47:18;;;;;;;6.38;5.93;;;14.40;99.90;;;;;;5040148;28;20183;-73
2022/09/09 00:49:51;;;;;;;6.03;5.50;;;14.50;99.90;;;;;;5046635;28;20260;-74
2022/09/09 00:52:39;;;;;;;6.07;5.57;;;14.50;99.90;;;;;;5036846;28;20203;-73
2022/09/09 00:55:27;;;;;;;6.75;5.20;;;14.60;99.90;;;;;;5037950;28;20536;-73
2022/09/09 00:57:53;;;;;;;7.03;6.53;;;14.50;99.90;;;;;;5042698;28;20191;-73
2022/09/09 01:00:29;;;;;;;7.78;7.07;;;14.60;99.90;;;;;;5044696;28;20196;-73
2022/09/09 01:03:21;;;;;;;7.97;7.28;;;14.60;99.90;;;;;;5040956;28;20303;-73
2022/09/09 01:05:58;;;;;;;8.05;7.45;;;14.70;99.90;;;;;;5044886;28;20164;-73
2022/09/09 01:08:51;;;;;;;7.18;6.68;;;14.70;99.90;;;;;;5041704;28;20208;-72
2022/09/09 01:11:26;;;;;;;8.20;7.55;;;14.70;99.90;;;;;;5044412;28;20180;-72
2022/09/09 01:14:25;;;;;;;8.35;7.60;;;14.70;99.90;;;;;;5036964;28;20278;-73
2022/09/09 01:16:54;;;;;;;8.50;7.60;;;14.70;99.90;;;;;;5039499;28;20185;-72
2022/09/09 01:19:40;;;;;;;8.70;7.97;;;14.70;99.90;;;;;;5039692;28;20254;-73
2022/09/09 01:22:20;;;;;;;8.43;7.70;;;14.70;99.90;;;;;;5031639;28;20713;-72
2022/09/09 01:25:02;;;;;;;8.35;7.65;;;14.80;99.90;;;;;;5038064;28;20191;-73
2022/09/09 01:27:28;;;;;;;10.50;7.25;;;14.70;99.90;;;;;;5036943;28;20211;-73
2022/09/09 01:29:54;;;;;;;8.02;7.43;;;14.70;99.90;;;;;;5033959;28;20236;-73
2022/09/09 01:32:40;;;;;;;9.07;8.23;;;14.70;99.90;;;;;;5044196;28;20214;-73
2022/09/09 01:35:10;;;;;;;8.43;7.82;;;14.70;99.90;;;;;;5044896;28;20168;-73
2022/09/09 01:37:36;;;;;;;9.13;8.32;;;14.70;99.90;;;;;;5039282;28;20169;-73
2022/09/09 01:40:01;;;;;;;9.48;8.68;;;14.70;99.90;;;;;;5044833;28;20200;-73
2022/09/09 01:42:27;;;;;;;9.13;7.70;;;14.70;99.90;;;;;;5043727;28;20172;-73
2022/09/09 01:44:54;;;;;;;8.70;8.00;;;14.80;99.90;;;;;;5044749;28;20172;-74
2022/09/09 01:47:20;;;;;;;8.65;7.95;;;14.80;99.90;;;;;;5037496;28;20179;-73
2022/09/09 01:49:45;;;;;;;8.63;7.93;;;14.80;99.90;;;;;;5035819;28;20197;-73
2022/09/09 01:52:11;;;;;;;8.45;7.72;;;14.90;99.90;;;;;;5025805;28;20290;-73
2022/09/09 01:54:36;;;;;;;8.25;7.47;;;14.90;99.90;;;;;;5030793;28;20706;-73
2022/09/09 01:57:30;;;;;;;7.50;6.90;;;14.90;99.90;;;;;;5034450;28;20181;-74
2022/09/09 02:00:13;;;;;;;8.70;7.88;;;14.90;99.90;;;;;;5037757;28;20701;-73
2022/09/09 02:02:56;;;;;;;7.18;6.57;;;14.90;99.90;;;;;;5030994;28;20212;-73
2022/09/09 02:05:40;;;;;;;7.63;6.97;;;14.90;99.90;;;;;;5033507;28;20207;-73
2022/09/09 02:08:19;;;;;;;7.88;7.28;;;14.90;99.90;;;;;;5035707;28;20636;-73
2022/09/09 02:11:00;;;;;;;7.05;6.55;;;15.00;99.90;;;;;;5033593;28;20227;-73
2022/09/09 02:13:26;;;;;;;7.93;7.32;;;15.00;99.90;;;;;;5027986;28;20173;-71
2022/09/09 02:16:10;;;;;;;8.07;7.45;;;15.00;99.90;;;;;;5029914;28;20551;-72
2022/09/09 02:19:00;;;;;;;7.93;7.22;;;14.90;99.90;;;;;;5029464;28;20687;-73
2022/09/09 02:21:31;;;;;;;7.63;7.03;;;14.90;99.90;;;;;;5029293;28;20176;-72
2022/09/09 02:24:00;;;;;;;7.90;7.18;;;14.90;99.90;;;;;;5033391;28;20207;-72
2022/09/09 02:26:26;;;;;;;7.63;6.93;;;14.90;99.90;;;;;;5035042;28;20189;-72
2022/09/09 02:28:55;;;;;;;8.75;7.85;;;15.00;99.90;;;;;;5035063;28;20201;-73
2022/09/09 02:31:24;;;;;;;8.75;7.95;;;14.90;99.90;;;;;;5029809;28;20204;-75
2022/09/09 02:33:59;;;;;;;8.55;7.82;;;14.80;99.90;;;;;;5031353;28;20276;-72
2022/09/09 02:36:29;;;;;;;9.77;8.73;;;14.80;99.90;;;;;;5029079;28;20176;-72
2022/09/09 02:38:55;;;;;;;8.63;7.93;;;14.70;99.90;;;;;;5030490;28;20534;-72
2022/09/09 02:41:27;;;;;;;9.13;8.38;;;14.60;99.90;;;;;;5028166;28;20192;-71
2022/09/09 02:43:52;;;;;;;8.52;7.82;;;14.60;99.90;;;;;;5027798;28;20712;-73
2022/09/09 02:46:35;;;;;;;8.20;7.40;;;14.50;99.90;;;;;;5032604;28;20179;-72
2022/09/09 02:49:24;;;;;;;8.65;7.63;;;14.50;99.90;;;;;;5032471;28;20168;-73
2022/09/09 02:52:16;;;;;;;9.25;7.70;;;14.50;99.90;;;;;;5028585;28;20181;-72
2022/09/09 02:54:43;;;;;;;8.70;7.93;;;14.60;99.90;;;;;;5029001;28;20270;-72
2022/09/09 02:57:23;;;;;;;7.65;6.95;;;14.60;99.90;;;;;;5028780;28;20188;-73
2022/09/09 02:59:52;;;;;;;7.65;7.00;;;14.60;99.90;;;;;;5029915;28;20334;-72
2022/09/09 03:02:18;;;;;;;8.00;6.63;;;14.60;99.90;;;;;;5030009;28;20271;-72
2022/09/09 03:04:44;;;;;;;7.07;6.50;;;14.70;99.90;;;;;;5032092;28;20287;-73
2022/09/09 03:07:11;;;;;;;8.10;6.72;;;14.70;99.90;;;;;;5035875;28;20412;-73
2022/09/09 03:09:37;;;;;;;7.28;6.78;;;14.70;99.90;;;;;;5034013;28;20199;-73
2022/09/09 03:12:06;;;;;;;7.97;7.28;;;14.60;99.90;;;;;;5034041;28;20528;-73
2022/09/09 03:14:32;;;;;;;7.63;6.82;;;14.70;99.90;;;;;;5032425;28;20192;-73
2022/09/09 03:17:00;;;;;;;7.10;6.53;;;14.70;99.90;;;;;;5032624;28;20183;-74
2022/09/09 03:19:27;;;;;;;6.95;6.45;;;14.70;99.90;;;;;;5033657;28;20205;-73
2022/09/09 03:21:53;;;;;;;7.03;6.50;;;14.70;99.90;;;;;;5033653;28;20177;-73
2022/09/09 03:24:19;;;;;;;7.53;6.93;;;14.60;99.90;;;;;;5034296;28;20601;-73
2022/09/09 03:26:45;;;;;;;7.07;6.38;;;14.70;99.90;;;;;;5029933;28;20173;-72
2022/09/09 03:29:12;;;;;;;7.03;6.53;;;14.70;99.90;;;;;;5034083;28;20271;-72
2022/09/09 03:31:38;;;;;;;8.27;7.50;;;14.80;99.90;;;;;;5029919;28;20187;-73
2022/09/09 03:34:05;;;;;;;8.45;7.65;;;14.80;99.90;;;;;;5029308;28;20172;-72
2022/09/09 03:36:31;;;;;;;8.80;7.70;;;14.70;99.90;;;;;;5031669;28;20176;-72
2022/09/09 03:38:57;;;;;;;8.50;7.78;;;14.70;99.90;;;;;;5034599;28;20726;-73
2022/09/09 03:41:24;;;;;;;9.95;9.07;;;14.60;99.90;;;;;;5034080;28;20185;-72
2022/09/09 03:43:51;;;;;;;9.02;8.18;;;14.60;99.90;;;;;;5035397;28;20262;-72
2022/09/09 03:46:17;;;;;;;9.23;8.35;;;14.60;99.90;;;;;;5031984;28;20234;-72
2022/09/09 03:48:43;;;;;;;8.95;8.15;;;14.60;99.90;;;;;;5028183;28;20268;-73
2022/09/09 03:51:10;;;;;;;8.75;7.78;;;14.60;99.90;;;;;;5028860;28;20180;-73
2022/09/09 03:53:37;;;;;;;9.70;8.70;;;14.60;99.90;;;;;;5033161;28;20314;-72
2022/09/09 03:56:06;;;;;;;9.55;8.63;;;14.60;99.90;;;;;;5035754;28;20505;-72
2022/09/09 03:58:33;;;;;;;9.05;8.32;;;14.50;99.90;;;;;;5028939;28;20180;-73
2022/09/09 04:01:01;;;;;;;9.88;8.95;;;14.50;99.90;;;;;;5040896;28;20196;-74
2022/09/09 04:03:28;;;;;;;9.70;8.70;;;14.50;99.90;;;;;;5036647;28;20208;-72
2022/09/09 04:05:55;;;;;;;9.63;8.73;;;14.50;99.90;;;;;;5039773;28;20172;-72
2022/09/09 04:08:22;;;;;;;8.05;7.35;;;14.50;99.90;;;;;;5041035;28;20185;-73
2022/09/09 04:10:49;;;;;;;7.40;6.90;;;14.50;99.90;;;;;;5043343;28;20226;-72
2022/09/09 04:13:17;;;;;;;9.00;8.20;;;14.50;99.90;;;;;;5034814;28;20178;-73
2022/09/09 04:15:44;;;;;;;8.88;8.18;;;14.50;99.90;;;;;;5034489;28;20206;-72
2022/09/09 04:18:11;;;;;;;9.43;8.55;;;14.50;99.90;;;;;;5041355;28;20656;-72
2022/09/09 04:20:37;;;;;;;9.25;8.38;;;14.50;99.90;;;;;;5033886;28;20199;-72
2022/09/09 04:23:04;;;;;;;8.48;7.88;;;14.50;99.90;;;;;;5038814;28;20223;-73
2022/09/09 04:25:29;;;;;;;9.35;8.45;;;14.50;99.90;;;;;;5025262;28;20177;-72
2022/09/09 04:27:56;;;;;;;8.63;7.93;;;14.40;99.90;;;;;;5031094;28;20188;-73
2022/09/09 04:30:23;;;;;;;9.95;9.10;;;14.40;99.90;;;;;;5035819;28;20193;-73
2022/09/09 04:32:49;;;;;;;9.65;8.80;;;14.40;99.90;;;;;;5027879;28;20669;-72
2022/09/09 04:35:15;;;;;;;8.73;7.93;;;14.40;99.90;;;;;;5034100;28;20268;-73
2022/09/09 04:37:40;;;;;;;9.57;8.77;;;14.40;99.90;;;;;;5032547;28;20665;-76
2022/09/09 04:40:09;;;;;;;8.90;8.15;;;14.30;99.90;;;;;;5037143;28;20283;-75
2022/09/09 04:42:36;;;;;;;9.55;8.75;;;14.30;99.90;;;;;;5038871;28;20192;-77
2022/09/09 04:45:02;;;;;;;10.13;9.05;;;14.40;99.90;;;;;;5036333;28;20246;-80
2022/09/09 04:47:28;;;;;;;9.93;9.10;;;14.30;99.90;;;;;;5038628;28;20589;-75
2022/09/09 04:49:54;;;;;;;10.23;9.38;;;14.30;99.90;;;;;;5031235;28;20322;-79
2022/09/09 04:52:20;;;;;;;11.07;10.05;;;14.30;99.90;;;;;;5035960;28;20176;-78
2022/09/09 04:54:46;;;;;;;11.07;10.02;;;14.40;99.90;;;;;;5044960;28;20188;-77
2022/09/09 04:57:12;;;;;;;9.85;9.10;;;14.40;99.90;;;;;;5030250;28;20180;-76
2022/09/09 04:59:39;;;;;;;9.52;8.73;;;14.40;99.90;;;;;;5043002;28;20280;-76
2022/09/09 05:02:05;;;;;;;10.98;10.02;;;14.50;99.90;;;;;;5033841;28;20192;-76
2022/09/09 05:04:31;;;;;;;9.48;8.77;;;14.60;99.90;;;;;;5037614;28;20202;-76
2022/09/09 05:06:56;;;;;;;8.75;8.05;;;14.70;99.90;;;;;;5045505;28;20169;-78
2022/09/09 05:09:22;;;;;;;9.23;8.52;;;14.60;99.90;;;;;;5041457;28;20227;-76
2022/09/09 05:11:48;;;;;;;8.88;7.90;;;14.60;99.90;;;;;;5050508;28;20180;-76
2022/09/09 05:14:14;;;;;;;7.93;7.32;;;14.70;99.90;;;;;;5044079;28;20196;-78
2022/09/09 05:16:40;;;;;;;7.45;6.85;;;14.70;99.90;;;;;;5045193;28;20187;-76
2022/09/09 05:19:07;;;;;;;7.35;6.80;;;14.80;99.90;;;;;;5041203;28;20204;-77
2022/09/09 05:21:34;;;;;;;7.15;6.65;;;14.80;99.90;;;;;;5046411;28;20168;-77
2022/09/09 05:24:02;;;;;;;7.85;7.25;;;14.90;99.90;;;;;;5043104;28;20195;-77
2022/09/09 05:26:29;;;;;;;6.75;6.25;;;14.90;99.90;;;;;;5044148;28;20266;-77
2022/09/09 05:28:55;;;;;;;7.55;6.60;;;15.10;99.90;;;;;;5042161;28;20201;-77
2022/09/09 05:31:21;;;;;;;6.93;6.43;;;15.30;99.90;;;;;;5042611;28;20176;-77
2022/09/09 05:33:49;;;;;;;9.82;7.25;;;15.40;99.90;;;;;;5030057;28;20247;-77
2022/09/09 05:36:16;;;;;;;8.40;7.60;;;15.50;99.90;;;;;;5036765;28;20191;-76
2022/09/09 05:38:43;;;;;;;8.05;6.53;;;15.60;99.90;;;;;;5032166;28;20715;-77
2022/09/09 05:41:11;;;;;;;10.13;7.13;;;15.70;99.90;;;;;;5039105;28;20208;-75
2022/09/09 05:43:37;;;;;;;6.97;6.38;;;15.70;99.90;;;;;;5041251;28;20265;-76
2022/09/09 05:46:10;;;;;;;7.38;6.78;;;15.80;99.90;;;;;;5036400;28;20204;-77
2022/09/09 05:48:38;;;;;;;6.72;6.22;;;15.90;99.90;;;;;;5045140;28;20254;-76
2022/09/09 05:51:06;;;;;;;7.45;6.70;;;16.10;99.90;;;;;;5030984;28;20278;-77
2022/09/09 05:53:33;;;;;;;7.40;6.70;;;16.10;99.90;;;;;;5032643;28;20648;-77
2022/09/09 05:56:04;;;;;;;7.32;6.55;;;16.20;99.90;;;;;;5029725;28;20180;-77
2022/09/09 05:58:34;;;;;;;7.07;6.38;;;16.30;99.90;;;;;;5032546;28;20207;-77
2022/09/09 06:01:14;;;;;;;6.57;6.03;;;16.20;99.90;;;;;;5033686;28;20206;-76
2022/09/09 06:03:41;;;;;;;6.90;6.30;;;16.40;99.90;;;;;;5036589;28;20272;-76
2022/09/09 06:06:12;;;;;;;6.55;6.05;;;16.50;99.90;;;;;;5027643;28;20212;-76
2022/09/09 06:08:40;;;;;;;7.28;6.68;;;16.50;99.90;;;;;;5036947;28;20267;-76
2022/09/09 06:11:18;;;;;;;7.40;6.70;;;16.40;99.90;;;;;;5043268;28;20184;-76
2022/09/09 06:13:43;;;;;;;6.13;5.72;;;16.20;99.90;;;;;;5041688;28;20533;-75
2022/09/09 06:16:11;;;;;;;7.60;6.78;;;16.00;99.90;;;;;;5044526;28;20176;-78
2022/09/09 06:18:37;;;;;;;6.97;6.43;;;15.80;99.90;;;;;;5045753;28;20180;-75
2022/09/09 06:21:06;;;;;;;7.20;6.57;;;15.50;99.90;;;;;;5045571;28;20206;-75
2022/09/09 06:23:35;;;;;;;6.72;6.22;;;15.40;99.90;;;;;;5028744;28;20714;-75
2022/09/09 06:26:06;;;;;;;7.60;6.90;;;15.50;99.90;;;;;;5033773;28;20256;-76
2022/09/09 06:28:33;;;;;;;7.63;7.00;;;15.70;99.90;;;;;;5036991;28;20829;-76
